createdAt,value
2018-06-25T00:01:03.656Z,88.47
2018-06-25T00:01:42.654Z,89.04
2018-06-25T00:04:14.421Z,88.37
2018-06-25T00:05:14.429Z,88.76
2018-06-25T00:06:14.429Z,87.99
2018-06-25T00:07:36.862Z,88.18
2018-06-25T00:08:14.929Z,87.99
2018-06-25T00:09:14.151Z,87.70
2018-06-25T00:10:14.928Z,88.09
2018-06-25T00:11:14.928Z,87.80
2018-06-25T00:12:37.892Z,88.76
2018-06-25T00:13:15.432Z,88.28
2018-06-25T00:14:15.433Z,88.37
2018-06-25T00:15:16.361Z,88.56
2018-06-25T00:16:15.929Z,88.47
2018-06-25T00:17:15.160Z,88.56
2018-06-25T00:18:21.929Z,88.66
2018-06-25T00:19:15.937Z,88.18
2018-06-25T00:20:16.430Z,87.90
2018-06-25T00:22:47.807Z,87.90
2018-06-25T00:23:47.822Z,87.90
2018-06-25T00:24:47.814Z,87.99
2018-06-25T00:25:49.791Z,88.18
2018-06-25T00:26:48.314Z,88.47
2018-06-25T00:27:48.314Z,88.85
2018-06-25T00:28:48.314Z,88.66
2018-06-25T00:29:48.823Z,89.04
2018-06-25T00:30:48.814Z,89.04
2018-06-25T00:31:48.814Z,88.85
2018-06-25T00:32:48.818Z,89.04
2018-06-25T00:33:49.314Z,89.23
2018-06-25T00:34:55.310Z,90.00
2018-06-25T00:35:49.314Z,89.72
2018-06-25T00:36:49.315Z,89.81
2018-06-25T00:38:12.815Z,89.90
2018-06-25T00:39:10.814Z,89.43
2018-06-25T00:39:49.812Z,89.90
2018-06-25T00:40:49.823Z,90.29
2018-06-25T00:41:50.314Z,90.48
2018-06-25T00:43:11.313Z,90.48
2018-06-25T00:43:50.318Z,90.39
2018-06-25T00:44:50.313Z,90.77
2018-06-25T00:45:52.747Z,91.15
2018-06-25T00:46:50.814Z,90.86
2018-06-25T00:47:50.813Z,90.96
2018-06-25T00:48:50.814Z,91.15
2018-06-25T00:49:54.246Z,90.67
2018-06-25T00:50:51.316Z,91.15
2018-06-25T00:51:51.314Z,90.77
2018-06-25T00:52:51.314Z,90.77
2018-06-25T00:53:51.313Z,91.05
2018-06-25T00:54:51.814Z,90.77
2018-06-25T00:55:51.818Z,91.15
2018-06-25T00:56:51.163Z,91.63
2018-06-25T00:57:51.814Z,90.77
2018-06-25T00:58:52.310Z,91.25
2018-06-25T00:59:52.316Z,91.82
2018-06-25T01:00:52.320Z,91.77
2018-06-25T01:01:51.784Z,91.82
2018-06-25T01:02:52.812Z,91.15
2018-06-25T01:03:52.818Z,90.86
2018-06-25T01:04:52.824Z,90.72
2018-06-25T01:05:52.816Z,90.96
2018-06-25T01:08:25.066Z,91.34
2018-06-25T01:09:48.081Z,91.53
2018-06-25T01:10:25.076Z,90.77
2018-06-25T01:11:25.568Z,90.67
2018-06-25T01:12:25.574Z,90.77
2018-06-25T01:13:25.573Z,91.20
2018-06-25T01:14:25.574Z,91.05
2018-06-25T01:15:26.076Z,91.25
2018-06-25T01:16:26.086Z,90.96
2018-06-25T01:17:26.073Z,90.77
2018-06-25T01:18:25.547Z,91.05
2018-06-25T01:19:26.575Z,90.86
2018-06-25T01:20:25.807Z,90.86
2018-06-25T01:21:26.573Z,90.67
2018-06-25T01:22:26.572Z,90.77
2018-06-25T01:23:26.169Z,90.67
2018-06-25T01:24:26.277Z,91.15
2018-06-25T01:26:58.519Z,91.34
2018-06-25T01:27:58.527Z,91.25
2018-06-25T01:28:58.527Z,90.86
2018-06-25T01:30:26.027Z,91.25
2018-06-25T01:30:58.253Z,91.01
2018-06-25T01:31:59.027Z,91.30
2018-06-25T01:32:59.027Z,91.53
2018-06-25T01:33:58.620Z,90.67
2018-06-25T01:35:04.959Z,90.77
2018-06-25T01:36:20.524Z,90.96
2018-06-25T01:37:00.460Z,90.86
2018-06-25T01:39:52.291Z,90.77
2018-06-25T01:42:02.789Z,90.86
2018-06-25T01:43:02.797Z,91.53
2018-06-25T01:44:02.796Z,90.86
2018-06-25T01:45:03.297Z,91.34
2018-06-25T01:46:03.293Z,91.20
2018-06-25T01:47:03.299Z,91.58
2018-06-25T01:48:24.299Z,91.30
2018-06-25T01:49:03.797Z,91.20
2018-06-25T01:50:03.797Z,91.30
2018-06-25T01:51:03.808Z,91.30
2018-06-25T01:52:03.796Z,90.72
2018-06-25T01:53:04.297Z,90.82
2018-06-25T01:54:04.299Z,91.34
2018-06-25T01:55:04.297Z,90.82
2018-06-25T01:56:04.298Z,91.30
2018-06-25T01:57:04.832Z,91.68
2018-06-25T01:58:25.800Z,91.77
2018-06-25T01:59:04.854Z,91.77
2018-06-25T02:00:04.210Z,91.49
2018-06-25T02:01:06.728Z,91.20
2018-06-25T02:03:36.550Z,91.87
2018-06-25T02:04:58.994Z,92.44
2018-06-25T02:05:36.565Z,91.39
2018-06-25T02:06:38.988Z,91.11
2018-06-25T02:07:58.056Z,90.91
2018-06-25T02:08:37.056Z,91.11
2018-06-25T02:09:37.989Z,90.63
2018-06-25T02:10:37.057Z,90.91
2018-06-25T02:11:37.056Z,91.49
2018-06-25T02:12:37.556Z,91.20
2018-06-25T02:13:58.557Z,91.20
2018-06-25T02:14:38.988Z,91.30
2018-06-25T02:15:37.560Z,91.11
2018-06-25T02:16:38.074Z,91.30
2018-06-25T02:17:38.067Z,90.91
2018-06-25T02:18:38.056Z,90.91
2018-06-25T02:19:38.056Z,90.91
2018-06-25T02:20:38.556Z,91.11
2018-06-25T02:21:44.572Z,91.49
2018-06-25T02:22:38.556Z,91.30
2018-06-25T02:23:38.602Z,91.58
2018-06-25T02:26:11.746Z,91.01
2018-06-25T02:27:10.314Z,90.91
2018-06-25T02:28:10.315Z,91.11
2018-06-25T02:29:10.814Z,91.11
2018-06-25T02:30:12.284Z,91.30
2018-06-25T02:31:10.816Z,91.30
2018-06-25T02:32:12.282Z,91.68
2018-06-25T02:33:11.310Z,91.49
2018-06-25T02:35:41.961Z,91.01
2018-06-25T02:36:42.702Z,91.11
2018-06-25T02:37:42.702Z,90.91
2018-06-25T02:38:45.263Z,91.49
2018-06-25T02:41:15.142Z,91.68
2018-06-25T02:42:15.088Z,91.77
2018-06-25T02:43:15.087Z,91.87
2018-06-25T02:44:15.595Z,91.58
2018-06-25T02:45:16.587Z,91.20
2018-06-25T02:46:15.588Z,91.20
2018-06-25T02:47:15.604Z,91.20
2018-06-25T02:48:22.088Z,90.82
2018-06-25T02:49:37.087Z,91.49
2018-06-25T02:50:38.518Z,90.82
2018-06-25T02:51:18.019Z,91.77
2018-06-25T02:52:15.677Z,91.87
2018-06-25T02:53:16.587Z,91.97
2018-06-25T02:54:16.586Z,91.77
2018-06-25T02:55:18.049Z,92.16
2018-06-25T02:56:38.098Z,91.97
2018-06-25T02:57:38.086Z,92.16
2018-06-25T02:58:18.521Z,91.77
2018-06-25T02:59:17.118Z,92.35
2018-06-25T03:00:17.096Z,91.77
2018-06-25T03:01:39.019Z,91.30
2018-06-25T03:02:17.588Z,91.20
2018-06-25T03:03:20.519Z,90.82
2018-06-25T03:04:17.587Z,91.30
2018-06-25T03:05:17.581Z,91.58
2018-06-25T03:06:33.057Z,91.97
2018-06-25T03:07:24.087Z,92.06
2018-06-25T03:08:39.087Z,91.97
2018-06-25T03:09:24.125Z,91.77
2018-06-25T03:10:18.592Z,91.68
2018-06-25T03:12:49.961Z,92.63
2018-06-25T03:13:49.309Z,92.54
2018-06-25T03:15:03.967Z,91.97
2018-06-25T03:15:50.512Z,92.44
2018-06-25T03:16:50.467Z,92.73
2018-06-25T03:17:50.473Z,92.25
2018-06-25T03:21:53.544Z,91.97
2018-06-25T03:22:53.556Z,91.87
2018-06-25T03:23:53.548Z,91.87
2018-06-25T03:24:54.052Z,91.68
2018-06-25T03:25:54.050Z,91.68
2018-06-25T03:27:15.053Z,91.77
2018-06-25T03:27:54.052Z,91.58
2018-06-25T03:28:54.555Z,91.87
2018-06-25T03:29:54.551Z,91.77
2018-06-25T03:34:58.453Z,91.68
2018-06-25T03:35:56.989Z,91.97
2018-06-25T03:38:57.489Z,91.97
2018-06-25T03:39:57.487Z,91.97
2018-06-25T03:50:13.396Z,91.97
2018-06-25T03:52:56.876Z,91.72
2018-06-25T04:03:48.065Z,91.53
2018-06-25T04:07:52.232Z,91.53
2018-06-25T04:09:15.239Z,91.44
2018-06-25T04:09:52.244Z,92.01
2018-06-25T04:12:46.978Z,90.96
2018-06-25T04:15:09.486Z,91.39
2018-06-25T04:20:56.861Z,91.44
2018-06-25T04:23:25.302Z,91.68
2018-06-25T04:31:44.565Z,89.86
2018-06-25T04:33:42.534Z,90.09
2018-06-25T04:35:00.067Z,88.90
2018-06-25T04:37:12.462Z,88.28
2018-06-25T04:38:12.476Z,88.90
2018-06-25T04:39:16.471Z,89.58
2018-06-25T04:42:03.223Z,90.39
2018-06-25T05:03:52.039Z,89.43
2018-06-25T05:04:51.386Z,90.00
2018-06-25T05:05:37.047Z,89.62
2018-06-25T05:12:43.105Z,89.90
2018-06-25T05:13:59.150Z,90.39
2018-06-25T05:14:44.109Z,89.86
2018-06-25T05:21:51.122Z,89.28
2018-06-25T05:30:20.444Z,88.13
2018-06-25T05:42:01.104Z,86.60
2018-06-25T05:55:37.456Z,86.98
2018-06-25T05:58:09.461Z,85.74
2018-06-25T06:01:50.695Z,84.68
2018-06-25T06:05:56.604Z,83.92
2018-06-25T06:07:08.542Z,83.25
2018-06-25T06:08:21.544Z,83.05
2018-06-25T06:14:59.877Z,81.27
2018-06-25T06:28:12.281Z,82.56
2018-06-25T06:30:43.824Z,78.88
2018-06-25T06:35:07.798Z,80.41
2018-06-25T06:42:14.336Z,80.16
2018-06-25T06:43:52.846Z,78.82
2018-06-25T06:44:52.844Z,78.44
2018-06-25T06:45:53.349Z,78.67
2018-06-25T06:46:53.344Z,79.34
2018-06-25T06:47:53.346Z,79.82
2018-06-25T06:48:53.361Z,79.91
2018-06-25T06:49:53.893Z,79.82
2018-06-25T06:50:53.849Z,79.44
2018-06-25T06:51:53.839Z,79.24
2018-06-25T06:52:53.843Z,78.86
2018-06-25T06:53:54.778Z,79.53
2018-06-25T06:54:54.345Z,79.14
2018-06-25T06:55:54.345Z,79.14
2018-06-25T06:56:54.371Z,80.20
2018-06-25T06:57:54.846Z,79.53
2018-06-25T06:58:54.840Z,78.38
2018-06-25T06:59:54.848Z,76.75
2018-06-25T07:00:54.844Z,76.27
2018-06-25T07:01:55.343Z,76.94
2018-06-25T07:02:55.348Z,78.86
2018-06-25T07:03:55.347Z,77.13
2018-06-25T07:04:55.344Z,76.90
2018-06-25T07:05:55.854Z,77.38
2018-06-25T07:06:55.598Z,78.25
2018-06-25T07:08:02.848Z,77.90
2018-06-25T07:08:55.844Z,77.23
2018-06-25T07:09:56.358Z,75.98
2018-06-25T07:10:56.347Z,76.37
2018-06-25T07:11:56.341Z,77.13
2018-06-25T07:12:56.344Z,77.23
2018-06-25T07:13:56.843Z,77.13
2018-06-25T07:14:56.843Z,74.93
2018-06-25T07:15:56.844Z,75.12
2018-06-25T07:17:17.843Z,75.50
2018-06-25T07:17:57.341Z,76.81
2018-06-25T07:18:57.343Z,77.29
2018-06-25T07:19:57.350Z,77.38
2018-06-25T07:20:57.351Z,77.00
2018-06-25T07:21:57.959Z,78.00
2018-06-25T07:22:58.276Z,77.80
2018-06-25T07:23:57.842Z,78.28
2018-06-25T07:24:57.844Z,78.19
2018-06-25T07:25:57.854Z,78.57
2018-06-25T07:26:58.344Z,77.80
2018-06-25T07:27:58.344Z,78.47
2018-06-25T07:28:58.344Z,78.96
2018-06-25T07:29:58.854Z,78.09
2018-06-25T07:30:58.844Z,77.61
2018-06-25T07:31:58.839Z,79.05
2018-06-25T07:32:58.868Z,78.86
2018-06-25T07:33:58.843Z,78.57
2018-06-25T07:34:59.346Z,77.42
2018-06-25T07:35:59.089Z,77.61
2018-06-25T07:36:59.186Z,78.86
2018-06-25T07:37:59.292Z,79.24
2018-06-25T07:39:20.846Z,78.09
2018-06-25T07:40:20.845Z,76.17
2018-06-25T07:41:00.278Z,76.46
2018-06-25T07:41:59.659Z,77.13
2018-06-25T07:42:59.846Z,76.84
2018-06-25T07:43:59.843Z,77.71
2018-06-25T07:45:00.778Z,78.38
2018-06-25T07:46:00.346Z,78.23
2018-06-25T07:47:00.389Z,77.46
2018-06-25T07:48:00.350Z,76.98
2018-06-25T07:49:00.345Z,77.36
2018-06-25T07:50:00.845Z,75.35
2018-06-25T07:51:00.845Z,75.06
2018-06-25T07:52:00.695Z,74.10
2018-06-25T07:53:00.799Z,74.10
2018-06-25T07:54:01.552Z,75.35
2018-06-25T07:55:01.346Z,76.31
2018-06-25T07:56:01.348Z,75.35
2018-06-25T07:57:01.345Z,76.12
2018-06-25T07:58:01.855Z,76.98
2018-06-25T07:59:01.849Z,75.06
2018-06-25T08:00:27.855Z,74.48
2018-06-25T08:01:22.846Z,74.10
2018-06-25T08:02:23.351Z,73.91
2018-06-25T08:03:02.344Z,74.77
2018-06-25T08:04:02.203Z,74.35
2018-06-25T08:05:02.346Z,74.68
2018-06-25T08:06:02.844Z,74.29
2018-06-25T08:07:02.841Z,74.87
2018-06-25T08:08:02.850Z,75.25
2018-06-25T08:09:02.858Z,75.06
2018-06-25T08:10:03.389Z,74.87
2018-06-25T08:11:03.345Z,74.48
2018-06-25T08:12:03.351Z,74.71
2018-06-25T08:13:03.345Z,72.22
2018-06-25T08:14:03.844Z,71.45
2018-06-25T08:15:03.844Z,73.27
2018-06-25T08:16:07.875Z,72.89
2018-06-25T08:17:03.846Z,71.64
2018-06-25T08:18:04.400Z,72.99
2018-06-25T08:19:04.345Z,72.37
2018-06-25T08:20:04.195Z,73.46
2018-06-25T08:21:04.344Z,70.68
2018-06-25T08:22:25.847Z,71.25
2018-06-25T08:23:04.871Z,71.73
2018-06-25T08:24:04.845Z,70.52
2018-06-25T08:25:04.845Z,71.39
2018-06-25T08:26:06.317Z,73.11
2018-06-25T08:27:05.349Z,72.44
2018-06-25T08:28:05.352Z,67.35
2018-06-25T08:29:05.368Z,68.60
2018-06-25T08:30:05.885Z,68.47
2018-06-25T08:31:05.576Z,68.37
2018-06-25T08:32:05.847Z,69.43
2018-06-25T08:33:12.859Z,68.66
2018-06-25T08:34:07.797Z,69.24
2018-06-25T08:35:06.345Z,68.95
2018-06-25T08:36:06.349Z,69.53
2018-06-25T08:37:07.415Z,70.68
2018-06-25T08:38:06.847Z,70.58
2018-06-25T08:39:06.845Z,71.45
2018-06-25T08:40:06.872Z,72.12
2018-06-25T08:41:06.842Z,71.51
2018-06-25T08:42:07.351Z,71.41
2018-06-25T08:43:07.346Z,71.70
2018-06-25T08:44:07.345Z,72.12
2018-06-25T08:45:07.333Z,72.31
2018-06-25T08:46:28.847Z,72.02
2018-06-25T08:47:07.845Z,72.41
2018-06-25T08:48:07.847Z,72.60
2018-06-25T08:49:07.816Z,72.31
2018-06-25T08:50:08.347Z,69.53
2018-06-25T08:51:08.345Z,69.53
2018-06-25T08:52:08.346Z,69.66
2018-06-25T08:53:08.352Z,70.33
2018-06-25T08:54:08.846Z,70.04
2018-06-25T08:55:08.853Z,70.90
2018-06-25T08:56:08.849Z,69.95
2018-06-25T08:57:08.846Z,69.08
2018-06-25T08:58:09.347Z,70.14
2018-06-25T08:59:09.100Z,68.31
2018-06-25T09:00:12.854Z,69.46
2018-06-25T09:01:09.345Z,68.89
2018-06-25T09:02:09.857Z,66.97
2018-06-25T09:03:09.923Z,66.33
2018-06-25T09:04:09.849Z,65.72
2018-06-25T09:05:09.848Z,64.22
2018-06-25T09:06:11.279Z,64.40
2018-06-25T09:07:10.347Z,64.31
2018-06-25T09:08:10.202Z,64.89
2018-06-25T09:09:10.345Z,66.04
2018-06-25T09:10:12.278Z,66.04
2018-06-25T09:11:10.846Z,65.66
2018-06-25T09:12:10.844Z,64.69
2018-06-25T09:13:17.850Z,64.79
2018-06-25T09:14:11.344Z,62.93
2018-06-25T09:15:11.360Z,63.35
2018-06-25T09:16:11.347Z,65.17
2018-06-25T09:17:11.346Z,65.08
2018-06-25T09:18:11.454Z,66.33
2018-06-25T09:19:11.576Z,66.71
2018-06-25T09:20:11.856Z,63.64
2018-06-25T09:21:11.847Z,63.35
2018-06-25T09:22:12.380Z,63.45
2018-06-25T09:23:12.364Z,63.76
2018-06-25T09:24:12.350Z,62.99
2018-06-25T09:25:12.782Z,63.76
2018-06-25T09:26:12.882Z,64.63
2018-06-25T09:27:12.572Z,61.58
2018-06-25T09:28:12.673Z,61.10
2018-06-25T09:29:12.781Z,63.79
2018-06-25T09:30:12.891Z,62.45
2018-06-25T09:31:13.347Z,62.80
2018-06-25T09:32:13.347Z,62.03
2018-06-25T09:33:13.349Z,63.48
2018-06-25T09:34:13.354Z,65.14
2018-06-25T09:35:13.514Z,61.97
2018-06-25T09:36:14.280Z,61.39
2018-06-25T09:37:13.848Z,63.60
2018-06-25T09:38:13.848Z,64.47
2018-06-25T09:39:14.349Z,63.51
2018-06-25T09:40:14.070Z,64.47
2018-06-25T09:41:14.308Z,65.81
2018-06-25T09:42:14.348Z,63.57
2018-06-25T09:43:14.862Z,62.23
2018-06-25T09:44:14.848Z,63.18
2018-06-25T09:45:14.846Z,62.71
2018-06-25T09:46:14.848Z,63.89
2018-06-25T09:47:15.349Z,62.26
2018-06-25T09:48:15.345Z,62.54
2018-06-25T09:49:15.350Z,64.08
2018-06-25T09:50:15.349Z,62.00
2018-06-25T09:51:15.897Z,62.38
2018-06-25T09:52:15.494Z,60.72
2018-06-25T09:53:15.854Z,59.94
2018-06-25T09:54:15.879Z,60.42
2018-06-25T09:55:16.348Z,61.19
2018-06-25T09:56:16.348Z,62.45
2018-06-25T09:57:16.349Z,63.12
2018-06-25T09:58:16.202Z,62.06
2018-06-25T09:59:16.348Z,61.10
2018-06-25T10:00:16.851Z,62.16
2018-06-25T10:01:16.572Z,61.39
2018-06-25T10:02:16.848Z,62.00
2018-06-25T10:03:16.851Z,61.90
2018-06-25T10:04:37.941Z,62.29
2018-06-25T10:05:17.350Z,62.41
2018-06-25T10:06:17.361Z,60.87
2018-06-25T10:07:17.351Z,61.16
2018-06-25T10:08:17.847Z,62.03
2018-06-25T10:09:17.862Z,62.51
2018-06-25T10:10:17.853Z,63.28
2018-06-25T10:11:18.348Z,63.85
2018-06-25T10:12:18.348Z,61.25
2018-06-25T10:13:18.347Z,59.23
2018-06-25T10:14:18.359Z,58.47
2018-06-25T10:15:18.334Z,58.47
2018-06-25T10:16:18.846Z,58.85
2018-06-25T10:17:18.854Z,60.77
2018-06-25T10:18:18.849Z,60.58
2018-06-25T10:19:19.284Z,61.45
2018-06-25T10:20:20.349Z,61.29
2018-06-25T10:21:19.375Z,61.00
2018-06-25T10:22:19.349Z,61.38
2018-06-25T10:23:26.350Z,61.51
2018-06-25T10:24:19.858Z,60.16
2018-06-25T10:25:19.849Z,59.39
2018-06-25T10:26:19.852Z,58.42
2018-06-25T10:27:19.849Z,59.00
2018-06-25T10:28:20.372Z,58.81
2018-06-25T10:29:20.349Z,59.42
2018-06-25T10:30:20.350Z,58.81
2018-06-25T10:31:20.355Z,59.39
2018-06-25T10:32:20.849Z,59.00
2018-06-25T10:33:20.850Z,58.33
2018-06-25T10:34:20.851Z,59.30
2018-06-25T10:35:41.850Z,59.30
2018-06-25T10:36:21.349Z,60.10
2018-06-25T10:37:21.348Z,60.45
2018-06-25T10:38:21.242Z,60.26
2018-06-25T10:39:21.349Z,59.30
2018-06-25T10:40:21.853Z,57.65
2018-06-25T10:41:21.874Z,59.39
2018-06-25T10:42:21.935Z,60.64
2018-06-25T10:43:21.838Z,61.41
2018-06-25T10:44:22.400Z,62.38
2018-06-25T10:45:22.351Z,60.28
2018-06-25T10:46:22.350Z,58.75
2018-06-25T10:47:22.351Z,57.32
2018-06-25T10:48:22.460Z,57.62
2018-06-25T10:49:22.850Z,56.94
2018-06-25T10:50:22.851Z,57.04
2018-06-25T10:51:22.860Z,57.04
2018-06-25T10:52:23.352Z,58.58
2018-06-25T10:53:23.350Z,57.78
2018-06-25T10:54:23.351Z,57.32
2018-06-25T10:55:23.357Z,58.07
2018-06-25T10:56:23.851Z,57.14
2018-06-25T10:57:23.851Z,58.00
2018-06-25T10:58:23.853Z,57.23
2018-06-25T10:59:23.938Z,57.04
2018-06-25T11:00:24.448Z,57.42
2018-06-25T11:01:24.355Z,57.42
2018-06-25T11:02:24.351Z,56.46
2018-06-25T11:03:24.857Z,56.94
2018-06-25T11:04:24.485Z,57.23
2018-06-25T11:05:45.862Z,56.36
2018-06-25T11:06:24.918Z,56.72
2018-06-25T11:07:25.475Z,57.07
2018-06-25T11:08:25.355Z,58.72
2018-06-25T11:09:25.359Z,60.35
2018-06-25T11:10:25.355Z,60.45
2018-06-25T11:11:25.359Z,60.45
2018-06-25T11:12:25.903Z,60.55
2018-06-25T11:13:25.940Z,60.03
2018-06-25T11:14:25.858Z,60.42
2018-06-25T11:17:56.454Z,59.75
2018-06-25T11:18:55.040Z,58.91
2018-06-25T11:23:12.128Z,57.17
2018-06-25T11:24:10.176Z,57.46
2018-06-25T11:25:30.520Z,56.30
2018-06-25T11:27:41.229Z,56.01
2018-06-25T11:29:02.791Z,57.59
2018-06-25T11:29:47.785Z,55.66
2018-06-25T11:33:27.688Z,54.91
2018-06-25T11:36:13.328Z,57.26
2018-06-25T11:39:02.876Z,54.00
2018-06-25T11:39:41.119Z,55.38
2018-06-25T11:41:02.883Z,55.38
2018-06-25T11:42:02.881Z,53.83
2018-06-25T11:42:41.485Z,52.48
2018-06-25T11:45:13.032Z,52.48
2018-06-25T11:46:14.698Z,53.93
2018-06-25T11:47:13.766Z,52.29
2018-06-25T11:48:28.266Z,52.58
2018-06-25T11:49:14.266Z,52.36
2018-06-25T11:50:15.199Z,51.68
2018-06-25T11:51:35.282Z,52.55
2018-06-25T11:52:14.774Z,52.36
2018-06-25T11:53:16.767Z,53.30
2018-06-25T11:54:14.126Z,56.41
2018-06-25T11:55:14.790Z,54.94
2018-06-25T11:58:07.547Z,55.33
2018-06-25T12:00:38.645Z,54.91
2018-06-25T12:01:33.570Z,55.40
2018-06-25T12:02:41.719Z,56.56
2018-06-25T12:04:50.086Z,56.56
2018-06-25T12:06:13.103Z,56.36
2018-06-25T12:06:49.586Z,56.36
2018-06-25T12:16:02.635Z,54.84
2018-06-25T12:17:04.149Z,55.04
2018-06-25T12:18:04.591Z,56.41
2018-06-25T12:18:42.125Z,53.39
2018-06-25T12:19:42.179Z,52.26
2018-06-25T12:20:42.130Z,51.68
2018-06-25T12:22:05.626Z,52.07
2018-06-25T12:22:44.625Z,52.29
2018-06-25T12:23:42.627Z,52.48
2018-06-25T12:25:03.626Z,52.41
2018-06-25T12:25:43.092Z,52.63
2018-06-25T12:26:42.326Z,51.64
2018-06-25T12:29:13.859Z,52.02
2018-06-25T12:30:35.719Z,51.25
2018-06-25T12:31:15.533Z,50.74
2018-06-25T12:32:17.098Z,51.90
2018-06-25T12:33:21.097Z,52.48
2018-06-25T12:34:16.032Z,52.48
2018-06-25T12:35:15.610Z,52.26
2018-06-25T12:36:15.601Z,52.67
2018-06-25T12:37:15.598Z,51.61
2018-06-25T12:38:15.604Z,52.61
2018-06-25T12:39:19.530Z,51.64
2018-06-25T12:40:15.210Z,51.64
2018-06-25T12:41:19.579Z,52.63
2018-06-25T12:42:16.101Z,52.92
2018-06-25T12:43:16.139Z,49.63
2018-06-25T12:44:16.605Z,49.24
2018-06-25T12:45:16.600Z,49.73
2018-06-25T12:46:16.607Z,50.38
2018-06-25T12:47:16.598Z,52.02
2018-06-25T12:48:17.102Z,52.19
2018-06-25T12:49:17.109Z,52.67
2018-06-25T12:50:16.470Z,53.93
2018-06-25T12:51:17.099Z,52.67
2018-06-25T12:52:16.728Z,53.91
2018-06-25T12:53:16.834Z,52.45
2018-06-25T12:54:17.601Z,52.75
2018-06-25T12:55:31.597Z,52.07
2018-06-25T12:56:41.100Z,52.65
2018-06-25T12:57:17.339Z,53.52
2018-06-25T12:59:49.675Z,53.61
2018-06-25T13:01:03.644Z,52.84
2018-06-25T13:01:49.640Z,53.30
2018-06-25T13:02:49.253Z,54.36
2018-06-25T13:04:04.146Z,55.52
2018-06-25T13:04:50.144Z,55.26
2018-06-25T13:05:50.146Z,53.71
2018-06-25T13:06:50.646Z,54.19
2018-06-25T13:08:04.645Z,54.68
2018-06-25T13:08:50.640Z,54.39
2018-06-25T13:09:51.143Z,55.47
2018-06-25T13:10:51.177Z,54.87
2018-06-25T13:11:51.139Z,55.47
2018-06-25T13:12:51.141Z,53.35
2018-06-25T13:13:57.147Z,52.45
2018-06-25T13:14:51.654Z,52.00
2018-06-25T13:15:51.636Z,52.19
2018-06-25T13:16:51.638Z,52.19
2018-06-25T13:17:51.116Z,51.81
2018-06-25T13:18:52.141Z,51.64
2018-06-25T13:20:13.142Z,52.61
2018-06-25T13:20:52.142Z,51.86
2018-06-25T13:21:51.624Z,51.86
2018-06-25T13:23:12.712Z,52.61
2018-06-25T13:23:51.816Z,50.98
2018-06-25T13:25:12.910Z,50.89
2018-06-25T13:25:53.715Z,51.86
2018-06-25T13:26:52.120Z,50.70
2018-06-25T13:28:14.143Z,51.08
2018-06-25T13:28:59.142Z,49.63
2018-06-25T13:30:13.483Z,49.32
2018-06-25T13:31:14.282Z,50.50
2018-06-25T13:31:53.642Z,52.24
2018-06-25T13:33:15.639Z,49.70
2018-06-25T13:35:46.157Z,49.22
2018-06-25T13:36:28.664Z,49.70
2018-06-25T13:37:46.163Z,49.22
2018-06-25T13:38:24.770Z,49.22
2018-06-25T13:41:03.038Z,49.75
2018-06-25T13:41:57.043Z,50.74
2018-06-25T13:42:57.047Z,50.94
2018-06-25T13:43:56.651Z,49.39
2018-06-25T13:44:56.754Z,50.38
2018-06-25T13:45:57.544Z,51.54
2018-06-25T13:48:37.225Z,49.65
2018-06-25T13:51:16.617Z,50.60
2018-06-25T13:52:11.552Z,51.66
2018-06-25T13:53:16.619Z,51.95
2018-06-25T13:54:23.203Z,51.76
2018-06-25T13:56:34.480Z,51.44
2018-06-25T13:57:34.491Z,52.31
2018-06-25T13:58:57.410Z,52.41
2018-06-25T13:59:34.976Z,53.67
2018-06-25T14:00:57.977Z,53.45
2018-06-25T14:01:34.978Z,53.16
2018-06-25T14:02:34.457Z,52.77
2018-06-25T14:03:35.479Z,53.35
2018-06-25T14:04:36.505Z,52.87
2018-06-25T14:06:02.910Z,53.38
2018-06-25T14:06:35.478Z,52.89
2018-06-25T14:09:21.237Z,52.05
2018-06-25T14:10:08.676Z,53.19
2018-06-25T14:11:07.250Z,52.70
2018-06-25T14:12:27.854Z,52.70
2018-06-25T14:13:21.744Z,52.89
2018-06-25T14:15:53.278Z,52.22
2018-06-25T14:16:45.488Z,52.99
2018-06-25T14:17:45.285Z,52.41
2018-06-25T14:18:53.787Z,53.67
2018-06-25T14:21:31.443Z,53.55
2018-06-25T14:22:11.203Z,54.49
2018-06-25T14:23:13.209Z,53.33
2018-06-25T14:25:42.973Z,54.22
2018-06-25T14:26:42.324Z,54.41
2018-06-25T14:27:42.982Z,53.55
2018-06-25T14:28:43.479Z,53.64
2018-06-25T14:29:45.476Z,54.15
2018-06-25T14:30:43.475Z,52.61
2018-06-25T14:31:43.477Z,52.14
2018-06-25T14:32:49.975Z,52.53
2018-06-25T14:35:21.366Z,50.31
2018-06-25T14:36:15.380Z,51.47
2018-06-25T14:37:36.374Z,50.31
2018-06-25T14:38:21.878Z,52.05
2018-06-25T14:39:15.105Z,51.76
2018-06-25T14:40:15.990Z,51.18
2018-06-25T14:41:15.920Z,50.70
2018-06-25T14:42:16.377Z,51.95
2018-06-25T14:46:39.503Z,53.55
2018-06-25T14:48:50.042Z,53.61
2018-06-25T14:49:50.782Z,53.81
2018-06-25T14:50:50.778Z,53.42
2018-06-25T14:53:21.857Z,54.68
2018-06-25T14:54:22.544Z,54.29
2018-06-25T14:55:22.087Z,54.39
2018-06-25T14:56:23.046Z,54.99
2018-06-25T14:57:23.047Z,53.61
2018-06-25T14:58:23.047Z,53.35
2018-06-25T14:59:37.546Z,53.23
2018-06-25T15:02:21.802Z,54.10
2018-06-25T15:03:21.813Z,55.45
2018-06-25T15:04:15.824Z,56.51
2018-06-25T15:04:56.284Z,55.83
2018-06-25T15:05:55.320Z,54.49
2018-06-25T15:06:55.312Z,54.39
2018-06-25T15:07:55.310Z,54.19
2018-06-25T15:09:01.811Z,54.19
2018-06-25T15:09:56.746Z,55.38
2018-06-25T15:11:16.811Z,55.96
2018-06-25T15:11:57.243Z,55.09
2018-06-25T15:14:29.048Z,55.35
2018-06-25T15:15:27.582Z,55.83
2018-06-25T15:18:05.363Z,57.42
2018-06-25T15:19:13.368Z,57.26
2018-06-25T15:20:20.371Z,57.42
2018-06-25T15:21:01.869Z,58.97
2018-06-25T15:22:20.868Z,58.87
2018-06-25T15:23:20.868Z,57.90
2018-06-25T15:23:59.867Z,57.71
2018-06-25T15:26:51.877Z,58.36
2018-06-25T15:27:30.985Z,58.75
2018-06-25T15:28:31.094Z,58.65
2018-06-25T15:29:53.140Z,59.10
2018-06-25T15:30:53.147Z,60.00
2018-06-25T15:31:32.141Z,59.32
2018-06-25T15:32:32.141Z,59.97
2018-06-25T15:35:03.191Z,60.77
2018-06-25T15:36:04.881Z,61.25
2018-06-25T15:37:24.927Z,60.38
2018-06-25T15:38:27.429Z,60.86
2018-06-25T15:39:05.865Z,60.77
2018-06-25T15:40:03.770Z,60.58
2018-06-25T15:41:04.424Z,60.68
2018-06-25T15:43:36.177Z,60.58
2018-06-25T15:44:38.118Z,60.68
2018-06-25T15:45:36.186Z,60.86
2018-06-25T15:46:36.687Z,60.38
2018-06-25T15:47:36.687Z,60.55
2018-06-25T15:48:36.686Z,61.03
2018-06-25T15:49:36.686Z,60.55
2018-06-25T15:52:08.454Z,61.41
2018-06-25T15:53:11.390Z,61.13
2018-06-25T15:56:04.557Z,62.28
2018-06-25T15:57:07.101Z,62.25
2018-06-25T15:57:45.071Z,62.15
2018-06-25T15:58:42.061Z,62.86
2018-06-25T15:59:40.602Z,62.28
2018-06-25T16:00:40.602Z,61.80
2018-06-25T16:01:44.033Z,61.51
2018-06-25T16:02:41.099Z,62.38
2018-06-25T16:03:42.534Z,62.96
2018-06-25T16:04:40.577Z,63.18
2018-06-25T16:07:12.847Z,60.86
2018-06-25T16:08:12.849Z,60.96
2018-06-25T16:09:12.852Z,60.48
2018-06-25T16:10:13.354Z,60.58
2018-06-25T16:11:13.352Z,61.25
2018-06-25T16:12:34.347Z,60.96
2018-06-25T16:13:13.349Z,61.06
2018-06-25T16:16:06.112Z,61.80
2018-06-25T16:16:45.120Z,62.28
2018-06-25T16:17:45.126Z,61.80
2018-06-25T16:22:09.873Z,62.38
2018-06-25T16:22:50.885Z,62.57
2018-06-25T16:23:48.879Z,62.25
2018-06-25T16:24:50.320Z,62.25
2018-06-25T16:26:16.381Z,62.63
2018-06-25T16:27:03.381Z,62.63
2018-06-25T16:29:20.907Z,62.25
2018-06-25T16:30:41.946Z,62.54
2018-06-25T16:31:43.389Z,63.12
2018-06-25T16:35:45.100Z,62.54
2018-06-25T16:36:45.118Z,63.21
2018-06-25T16:37:24.107Z,63.21
2018-06-25T16:38:26.608Z,63.89
2018-06-25T16:39:24.607Z,64.76
2018-06-25T16:40:26.041Z,63.12
2018-06-25T16:41:45.608Z,63.31
2018-06-25T16:42:24.608Z,63.31
2018-06-25T16:43:47.106Z,63.89
2018-06-25T16:44:25.153Z,63.60
2018-06-25T16:45:25.108Z,64.86
2018-06-25T16:46:25.110Z,63.98
2018-06-25T16:47:45.692Z,63.89
2018-06-25T16:48:25.662Z,63.41
2018-06-25T16:49:26.542Z,63.89
2018-06-25T16:50:25.608Z,63.98
2018-06-25T16:52:57.237Z,63.70
2018-06-25T16:53:57.251Z,63.98
2018-06-25T16:54:57.244Z,63.21
2018-06-25T16:56:18.748Z,63.12
2018-06-25T16:56:57.743Z,63.31
2018-06-25T16:57:57.743Z,63.31
2018-06-25T16:58:57.743Z,62.93
2018-06-25T17:01:35.496Z,64.28
2018-06-25T17:02:50.501Z,64.95
2018-06-25T17:03:51.998Z,63.21